createdAt,value
2018-12-19T00:00:40.417Z,1.30
2018-12-19T00:03:06.666Z,1.30
2018-12-19T00:05:32.905Z,1.30
2018-12-19T00:07:59.180Z,1.30
2018-12-19T00:10:25.512Z,1.20
2018-12-19T00:12:51.776Z,1.30
2018-12-19T00:15:18.018Z,1.20
2018-12-19T00:17:44.284Z,1.20
2018-12-19T00:20:10.566Z,1.20
2018-12-19T00:22:36.802Z,1.10
2018-12-19T00:25:03.610Z,1.20
2018-12-19T00:27:29.859Z,1.20
2018-12-19T00:29:56.094Z,1.20
2018-12-19T00:32:22.391Z,1.20
2018-12-19T00:34:48.645Z,1.20
2018-12-19T00:37:14.889Z,1.20
2018-12-19T00:39:41.168Z,1.20
2018-12-19T00:42:07.409Z,1.20
2018-12-19T00:44:33.634Z,1.20
2018-12-19T00:46:59.904Z,1.20
2018-12-19T00:49:26.160Z,1.20
2018-12-19T00:51:52.419Z,1.20
2018-12-19T00:54:18.799Z,1.20
2018-12-19T00:56:45.040Z,1.20
2018-12-19T00:59:11.323Z,1.20
2018-12-19T01:01:37.563Z,1.20
2018-12-19T01:04:03.814Z,1.20
2018-12-19T01:06:30.211Z,1.20
2018-12-19T01:08:56.442Z,1.20
2018-12-19T01:11:22.710Z,1.30
2018-12-19T01:13:48.951Z,1.20
2018-12-19T01:16:15.191Z,1.20
2018-12-19T01:18:41.455Z,1.10
2018-12-19T01:21:07.706Z,1.20
2018-12-19T01:23:33.993Z,1.10
2018-12-19T01:26:00.249Z,1.10
2018-12-19T01:28:26.492Z,1.10
2018-12-19T01:30:52.915Z,1.10
2018-12-19T01:33:19.156Z,1.10
2018-12-19T01:35:45.408Z,1.10
2018-12-19T01:38:11.679Z,1.10
2018-12-19T01:40:37.982Z,1.00
2018-12-19T01:43:04.251Z,1.00
2018-12-19T01:45:30.502Z,1.00
2018-12-19T01:47:56.916Z,1.00
2018-12-19T01:50:23.192Z,1.00
2018-12-19T01:52:49.475Z,1.00
2018-12-19T01:55:15.733Z,1.00
2018-12-19T01:57:42.006Z,1.00
2018-12-19T02:00:08.288Z,1.00
2018-12-19T02:02:34.591Z,0.90
2018-12-19T02:05:00.838Z,1.00
2018-12-19T02:07:27.110Z,1.00
2018-12-19T02:09:53.361Z,0.90
2018-12-19T02:12:19.750Z,0.90
2018-12-19T02:14:46.062Z,0.90
2018-12-19T02:17:12.319Z,0.90
2018-12-19T02:19:38.631Z,0.90
2018-12-19T02:22:04.987Z,0.90
2018-12-19T02:24:31.272Z,0.90
2018-12-19T02:26:57.530Z,0.90
2018-12-19T02:29:23.840Z,1.00
2018-12-19T02:31:50.266Z,0.90
2018-12-19T02:34:16.696Z,0.90
2018-12-19T02:36:42.963Z,0.90
2018-12-19T02:39:09.211Z,0.90
2018-12-19T02:41:35.528Z,0.90
2018-12-19T02:44:01.837Z,0.90
2018-12-19T02:46:28.128Z,0.90
2018-12-19T02:48:54.412Z,1.00
2018-12-19T02:51:20.743Z,1.00
2018-12-19T02:53:47.064Z,1.00
2018-12-19T02:56:13.381Z,0.90
2018-12-19T02:58:39.640Z,0.90
2018-12-19T03:01:05.935Z,0.90
2018-12-19T03:03:32.207Z,0.90
2018-12-19T03:05:58.511Z,0.90
2018-12-19T03:08:24.779Z,0.80
2018-12-19T03:10:51.268Z,0.80
2018-12-19T03:13:17.546Z,0.80
2018-12-19T03:15:43.805Z,0.90
2018-12-19T03:18:10.111Z,0.80
2018-12-19T03:20:36.380Z,0.80
2018-12-19T03:23:02.668Z,0.90
2018-12-19T03:25:28.997Z,0.80
2018-12-19T03:27:55.284Z,0.90
2018-12-19T03:30:21.580Z,0.80
2018-12-19T03:32:47.880Z,0.90
2018-12-19T03:35:14.187Z,0.90
2018-12-19T03:37:40.465Z,0.90
2018-12-19T03:40:06.979Z,0.90
2018-12-19T03:42:33.283Z,0.90
2018-12-19T03:44:59.543Z,0.90
2018-12-19T03:47:25.792Z,0.90
2018-12-19T03:49:52.123Z,0.90
2018-12-19T03:52:18.388Z,0.90
2018-12-19T03:54:44.821Z,0.80
2018-12-19T03:57:11.507Z,0.80
2018-12-19T03:59:37.778Z,0.80
2018-12-19T04:02:04.088Z,0.80
2018-12-19T04:04:30.367Z,0.80
2018-12-19T04:06:56.664Z,0.80
2018-12-19T04:09:22.947Z,0.80
2018-12-19T04:11:49.232Z,0.80
2018-12-19T04:14:15.496Z,0.80
2018-12-19T04:16:41.778Z,0.70
2018-12-19T04:19:08.043Z,0.70
2018-12-19T04:21:34.343Z,0.70
2018-12-19T04:24:00.592Z,0.70
2018-12-19T04:26:26.944Z,0.60
2018-12-19T04:28:53.232Z,0.70
2018-12-19T04:31:19.527Z,0.60
2018-12-19T04:33:45.790Z,0.60
2018-12-19T04:36:12.077Z,0.60
2018-12-19T04:38:38.582Z,0.60
2018-12-19T04:41:04.871Z,0.60
2018-12-19T04:43:31.139Z,0.60
2018-12-19T04:45:57.431Z,0.50
2018-12-19T04:48:23.706Z,0.50
2018-12-19T04:50:49.999Z,0.40
2018-12-19T04:53:16.383Z,0.40
2018-12-19T04:55:42.704Z,0.30
2018-12-19T04:58:09.011Z,0.30
2018-12-19T05:00:35.278Z,0.30
2018-12-19T05:03:01.581Z,0.30
2018-12-19T05:05:27.840Z,0.30
2018-12-19T05:07:54.378Z,0.30
2018-12-19T05:10:20.647Z,0.30
2018-12-19T05:12:46.916Z,0.20
2018-12-19T05:15:13.202Z,0.20
2018-12-19T05:17:39.476Z,0.20
2018-12-19T05:20:09.558Z,0.10
2018-12-19T05:22:35.863Z,0.10
2018-12-19T05:25:05.106Z,0.10
2018-12-19T05:27:31.357Z,0.10
2018-12-19T05:29:57.634Z,0.10
2018-12-19T05:32:23.915Z,0.00
2018-12-19T05:34:50.190Z,0.00
2018-12-19T05:37:16.457Z,0.00
2018-12-19T05:39:42.713Z,-0.10
2018-12-19T05:42:09.005Z,0.00
2018-12-19T05:44:35.258Z,-0.10
2018-12-19T05:47:01.532Z,-0.10
2018-12-19T05:49:27.781Z,-0.10
2018-12-19T05:51:54.092Z,-0.10
2018-12-19T05:54:20.399Z,-0.10
2018-12-19T05:56:46.658Z,-0.10
2018-12-19T05:59:12.922Z,-0.10
2018-12-19T06:01:39.194Z,-0.10
2018-12-19T06:04:05.758Z,-0.10
2018-12-19T06:06:32.046Z,-0.10
2018-12-19T06:08:58.302Z,-0.10
2018-12-19T06:11:24.673Z,-0.10
2018-12-19T06:13:50.931Z,-0.10
2018-12-19T06:16:17.262Z,-0.10
2018-12-19T06:18:43.575Z,-0.10
2018-12-19T06:21:09.828Z,-0.10
2018-12-19T06:23:36.084Z,-0.10
2018-12-19T06:26:02.367Z,-0.10
2018-12-19T06:28:28.627Z,-0.10
2018-12-19T06:30:54.896Z,-0.10
2018-12-19T06:33:21.161Z,-0.10
2018-12-19T06:35:47.418Z,-0.10
2018-12-19T06:38:13.699Z,0.00
2018-12-19T06:40:39.960Z,0.00
2018-12-19T06:43:06.219Z,0.00
2018-12-19T06:45:32.493Z,0.00
2018-12-19T06:47:58.743Z,-0.10
2018-12-19T06:50:24.990Z,-0.10
2018-12-19T06:52:51.282Z,0.00
2018-12-19T06:55:17.523Z,0.00
2018-12-19T06:57:43.810Z,-0.10
2018-12-19T07:00:10.183Z,-0.10
2018-12-19T07:02:36.442Z,-0.10
2018-12-19T07:05:03.771Z,-0.10
2018-12-19T07:07:30.019Z,-0.10
2018-12-19T07:09:56.270Z,0.00
2018-12-19T07:12:22.542Z,-0.10
2018-12-19T07:14:48.924Z,0.00
2018-12-19T07:17:15.183Z,0.00
2018-12-19T07:19:41.452Z,0.00
2018-12-19T07:22:07.725Z,0.00
2018-12-19T07:24:33.981Z,0.10
2018-12-19T07:27:00.284Z,0.10
2018-12-19T07:29:26.555Z,0.20
2018-12-19T07:31:52.915Z,0.20
2018-12-19T07:34:19.200Z,0.20
2018-12-19T07:36:45.467Z,0.30
2018-12-19T07:39:11.732Z,0.30
2018-12-19T07:41:38.012Z,0.40
2018-12-19T07:44:04.242Z,0.40
2018-12-19T07:46:30.487Z,0.40
2018-12-19T07:48:56.791Z,0.50
2018-12-19T07:51:23.086Z,0.50
2018-12-19T07:53:49.336Z,0.50
2018-12-19T07:56:15.827Z,0.60
2018-12-19T07:58:42.148Z,0.60
2018-12-19T08:01:08.403Z,0.70
2018-12-19T08:03:34.839Z,0.70
2018-12-19T08:06:01.080Z,0.70
2018-12-19T08:08:27.362Z,0.80
2018-12-19T08:10:53.661Z,0.80
2018-12-19T08:13:19.916Z,0.80
2018-12-19T08:15:46.196Z,0.90
2018-12-19T08:18:12.480Z,0.90
2018-12-19T08:20:39.396Z,1.00
2018-12-19T08:23:05.670Z,1.00
2018-12-19T08:25:31.927Z,1.00
2018-12-19T08:27:58.199Z,1.00
2018-12-19T08:30:24.467Z,1.00
2018-12-19T08:32:50.718Z,1.10
2018-12-19T08:35:17.021Z,1.10
2018-12-19T08:37:43.274Z,1.10
2018-12-19T08:40:09.522Z,1.10
2018-12-19T08:42:35.799Z,1.20
2018-12-19T08:45:02.327Z,1.20
2018-12-19T08:47:28.598Z,1.20
2018-12-19T08:49:54.871Z,1.30
2018-12-19T08:52:21.139Z,1.30
2018-12-19T08:54:47.399Z,1.30
2018-12-19T08:57:13.697Z,1.40
2018-12-19T08:59:39.961Z,1.30
2018-12-19T09:02:06.267Z,1.40
2018-12-19T09:04:32.539Z,1.50
2018-12-19T09:06:58.779Z,1.50
2018-12-19T09:09:25.076Z,1.40
2018-12-19T09:11:51.363Z,1.40
2018-12-19T09:14:17.667Z,1.40
2018-12-19T09:16:43.951Z,1.50
2018-12-19T09:19:10.225Z,1.50
2018-12-19T09:21:36.489Z,1.60
2018-12-19T09:24:02.771Z,1.60
2018-12-19T09:26:29.041Z,1.60
2018-12-19T09:28:55.343Z,1.60
2018-12-19T09:31:21.601Z,1.70
2018-12-19T09:33:47.847Z,1.70
2018-12-19T09:36:14.137Z,1.80
2018-12-19T09:38:41.061Z,1.80
2018-12-19T09:41:12.301Z,1.90
2018-12-19T09:43:35.755Z,1.90
2018-12-19T09:46:02.012Z,2.00
2018-12-19T09:48:28.309Z,2.00
2018-12-19T09:50:54.579Z,2.00
2018-12-19T09:53:20.959Z,2.10
2018-12-19T09:55:47.230Z,2.10
2018-12-19T09:58:13.508Z,2.10
2018-12-19T10:00:39.818Z,2.10
2018-12-19T10:03:06.084Z,2.10
2018-12-19T10:05:32.327Z,2.10
2018-12-19T10:07:58.642Z,2.20
2018-12-19T10:10:25.014Z,2.20
2018-12-19T10:12:51.271Z,2.30
2018-12-19T10:15:17.546Z,2.30
2018-12-19T10:17:43.800Z,2.30
2018-12-19T10:20:10.203Z,2.30
2018-12-19T10:22:36.979Z,2.30
2018-12-19T10:25:10.662Z,2.40
2018-12-19T10:27:36.953Z,2.40
2018-12-19T10:30:06.959Z,2.40
2018-12-19T10:32:35.260Z,2.50
2018-12-19T10:35:01.536Z,2.50
2018-12-19T10:37:27.788Z,2.50
2018-12-19T10:39:54.196Z,2.50
2018-12-19T10:42:20.463Z,2.50
2018-12-19T10:44:46.730Z,2.50
2018-12-19T10:47:12.985Z,2.60
2018-12-19T10:49:39.267Z,2.60
2018-12-19T10:52:05.511Z,2.50
2018-12-19T10:54:31.767Z,2.60
2018-12-19T10:56:58.148Z,2.60
2018-12-19T10:59:24.403Z,2.60
2018-12-19T11:01:50.655Z,2.60
2018-12-19T11:04:16.953Z,2.60
2018-12-19T11:06:43.228Z,2.70
2018-12-19T11:09:09.524Z,2.70
2018-12-19T11:11:35.777Z,2.70
2018-12-19T11:14:02.065Z,2.70
2018-12-19T11:16:28.317Z,2.70
2018-12-19T11:18:54.577Z,2.80
2018-12-19T11:21:20.839Z,2.80
2018-12-19T11:23:47.143Z,2.80
2018-12-19T11:26:13.438Z,2.80
2018-12-19T11:28:39.699Z,2.80
2018-12-19T11:31:06.143Z,2.80
2018-12-19T11:33:32.402Z,2.80
2018-12-19T11:35:58.684Z,2.80
2018-12-19T11:38:24.978Z,2.80
2018-12-19T11:40:51.260Z,2.90
2018-12-19T11:43:17.534Z,2.90
2018-12-19T11:45:43.832Z,2.90
2018-12-19T11:48:10.104Z,2.80
2018-12-19T11:50:36.343Z,2.90
2018-12-19T11:53:02.612Z,2.90
2018-12-19T11:55:28.933Z,2.90
2018-12-19T11:57:55.198Z,2.90
2018-12-19T12:00:21.581Z,2.90
2018-12-19T12:02:47.900Z,2.90
2018-12-19T12:05:14.226Z,2.90
2018-12-19T12:07:40.652Z,2.90
2018-12-19T12:10:07.280Z,3.00
2018-12-19T12:12:33.564Z,3.10
2018-12-19T12:14:59.829Z,3.10
2018-12-19T12:17:26.133Z,3.10
2018-12-19T12:19:52.402Z,3.10
2018-12-19T12:22:18.702Z,3.10
2018-12-19T12:24:44.988Z,3.10
2018-12-19T12:27:11.259Z,3.10
2018-12-19T12:29:37.548Z,3.10
2018-12-19T12:32:03.836Z,3.10
2018-12-19T12:34:30.092Z,3.20
2018-12-19T12:36:56.382Z,3.20
2018-12-19T12:39:22.648Z,3.20
2018-12-19T12:41:52.311Z,3.20
2018-12-19T12:44:17.290Z,3.20
2018-12-19T12:46:43.685Z,3.20
2018-12-19T12:49:09.967Z,3.20
2018-12-19T12:51:36.674Z,3.20
2018-12-19T12:54:02.990Z,3.20
2018-12-19T12:56:29.289Z,3.20
2018-12-19T12:58:55.595Z,3.20
2018-12-19T13:01:21.940Z,3.20
2018-12-19T13:03:48.221Z,3.20
2018-12-19T13:06:14.475Z,3.20
2018-12-19T13:08:40.871Z,3.20
2018-12-19T13:11:07.317Z,3.20
2018-12-19T13:13:33.599Z,3.20
2018-12-19T13:15:59.938Z,3.20
2018-12-19T13:18:26.191Z,3.10
2018-12-19T13:20:52.457Z,3.10
2018-12-19T13:23:18.737Z,3.10
2018-12-19T13:25:45.053Z,3.10
2018-12-19T13:28:11.328Z,3.10
2018-12-19T13:30:37.579Z,3.10
2018-12-19T13:33:03.829Z,3.10
2018-12-19T13:35:30.114Z,3.10
2018-12-19T13:37:56.365Z,3.10
2018-12-19T13:40:22.614Z,3.10
2018-12-19T13:42:48.879Z,3.10
2018-12-19T13:45:15.176Z,3.10
2018-12-19T13:47:41.430Z,3.10
2018-12-19T13:50:07.786Z,3.10
2018-12-19T13:52:34.106Z,3.10
2018-12-19T13:55:00.421Z,3.10
2018-12-19T13:57:28.271Z,3.00
2018-12-19T13:59:54.913Z,3.00
2018-12-19T14:02:21.203Z,3.00
2018-12-19T14:04:47.724Z,3.00
2018-12-19T14:07:14.338Z,3.00
2018-12-19T14:09:40.619Z,3.00
2018-12-19T14:12:12.229Z,3.00
2018-12-19T14:14:35.239Z,3.00
2018-12-19T14:17:01.498Z,2.90
2018-12-19T14:19:27.776Z,2.90
2018-12-19T14:21:54.035Z,2.90
2018-12-19T14:24:20.294Z,2.90
2018-12-19T14:26:46.591Z,2.80
2018-12-19T14:29:12.865Z,2.80
2018-12-19T14:31:39.208Z,2.80
2018-12-19T14:34:05.451Z,2.80
2018-12-19T14:36:31.705Z,2.80
2018-12-19T14:38:58.040Z,2.80
2018-12-19T14:41:24.321Z,2.80
2018-12-19T14:43:50.600Z,2.70
2018-12-19T14:46:17.771Z,2.70
2018-12-19T14:48:44.034Z,2.70
2018-12-19T14:51:10.374Z,2.60
2018-12-19T14:53:36.631Z,2.60
2018-12-19T14:56:03.067Z,2.60
2018-12-19T14:58:29.318Z,2.60
2018-12-19T15:00:55.645Z,2.50
2018-12-19T15:03:21.915Z,2.50
2018-12-19T15:05:48.167Z,2.50
2018-12-19T15:08:14.447Z,2.50
2018-12-19T15:10:40.712Z,2.50
2018-12-19T15:13:07.013Z,2.50
2018-12-19T15:15:33.309Z,2.50
2018-12-19T15:17:59.578Z,2.60
2018-12-19T15:20:25.870Z,2.60
2018-12-19T15:22:52.147Z,2.60
2018-12-19T15:25:18.421Z,2.60
2018-12-19T15:27:44.691Z,2.60
2018-12-19T15:30:11.124Z,2.60
2018-12-19T15:32:38.149Z,2.70
2018-12-19T15:35:04.664Z,2.60
2018-12-19T15:37:30.974Z,2.60
2018-12-19T15:39:57.219Z,2.60
2018-12-19T15:42:23.518Z,2.60
2018-12-19T15:44:49.782Z,2.60
2018-12-19T15:47:16.044Z,2.60
2018-12-19T15:49:42.346Z,2.60
2018-12-19T15:52:08.594Z,2.60
2018-12-19T15:54:34.905Z,2.50
2018-12-19T15:57:01.203Z,2.50
2018-12-19T15:59:27.487Z,2.50
2018-12-19T16:01:53.734Z,2.50
2018-12-19T16:04:20.010Z,2.40
2018-12-19T16:06:46.260Z,2.40
2018-12-19T16:09:12.551Z,2.40
2018-12-19T16:11:38.902Z,2.40
2018-12-19T16:14:05.179Z,2.30
2018-12-19T16:16:31.450Z,2.30
2018-12-19T16:18:57.713Z,2.30
2018-12-19T16:21:23.981Z,2.40
2018-12-19T16:23:50.271Z,2.40
2018-12-19T16:26:16.541Z,2.40
2018-12-19T16:28:42.813Z,2.40
2018-12-19T16:31:09.259Z,2.50
2018-12-19T16:33:35.512Z,2.40
2018-12-19T16:36:01.794Z,2.40
2018-12-19T16:38:28.142Z,2.40
2018-12-19T16:40:54.436Z,2.40
2018-12-19T16:43:20.796Z,2.40
2018-12-19T16:45:47.150Z,2.50
2018-12-19T16:48:13.408Z,2.40
2018-12-19T16:50:39.823Z,2.40
2018-12-19T16:53:06.094Z,2.40
2018-12-19T16:55:32.364Z,2.40
2018-12-19T16:57:58.830Z,2.40
2018-12-19T17:00:25.536Z,2.40
2018-12-19T17:02:52.135Z,2.40
2018-12-19T17:05:18.428Z,2.40
2018-12-19T17:07:44.687Z,2.40
2018-12-19T17:10:10.984Z,2.40
2018-12-19T17:12:37.289Z,2.40
2018-12-19T17:15:04.184Z,2.40
2018-12-19T17:17:30.962Z,2.40
2018-12-19T17:19:57.287Z,2.40
2018-12-19T17:22:23.599Z,2.30
2018-12-19T17:24:49.872Z,2.30
2018-12-19T17:27:16.147Z,2.40
2018-12-19T17:29:42.792Z,2.40
2018-12-19T17:32:09.624Z,2.30
2018-12-19T17:34:36.161Z,2.30
2018-12-19T17:37:02.801Z,2.30
2018-12-19T17:39:29.101Z,2.40
2018-12-19T17:41:55.391Z,2.40
2018-12-19T17:44:21.643Z,2.30
2018-12-19T17:46:47.931Z,2.40
2018-12-19T17:49:14.924Z,2.30
2018-12-19T17:51:41.587Z,2.30
2018-12-19T17:54:07.966Z,2.30
2018-12-19T17:56:34.374Z,2.30
2018-12-19T17:59:00.943Z,2.30
2018-12-19T18:01:27.615Z,2.30
2018-12-19T18:03:54.015Z,2.40
2018-12-19T18:06:20.307Z,2.40
2018-12-19T18:08:46.603Z,2.40
2018-12-19T18:11:13.052Z,2.30
2018-12-19T18:13:40.239Z,2.40
2018-12-19T18:16:07.111Z,2.40
2018-12-19T18:18:33.508Z,2.40
2018-12-19T18:21:00.161Z,2.40
2018-12-19T18:23:26.916Z,2.40
2018-12-19T18:25:53.202Z,2.30
2018-12-19T18:28:19.586Z,2.30
2018-12-19T18:30:45.925Z,2.30
2018-12-19T18:33:12.183Z,2.30
2018-12-19T18:35:38.503Z,2.30
2018-12-19T18:38:05.193Z,2.30
2018-12-19T18:40:31.510Z,2.30
2018-12-19T18:42:58.145Z,2.30
2018-12-19T18:45:24.428Z,2.30
2018-12-19T18:47:50.728Z,2.30
2018-12-19T18:50:19.052Z,2.30
2018-12-19T18:52:45.779Z,2.30
2018-12-19T18:55:12.314Z,2.30
2018-12-19T18:57:38.745Z,2.30
2018-12-19T19:00:07.105Z,2.30
2018-12-19T19:02:33.679Z,2.30
2018-12-19T19:05:00.037Z,2.20
2018-12-19T19:07:26.355Z,2.30
2018-12-19T19:09:52.874Z,2.30
2018-12-19T19:12:19.182Z,2.30
2018-12-19T19:14:45.508Z,2.30
2018-12-19T19:17:11.823Z,2.30
2018-12-19T19:19:38.107Z,2.30
2018-12-19T19:22:04.504Z,2.30
2018-12-19T19:24:30.795Z,2.30
2018-12-19T19:26:57.086Z,2.30
2018-12-19T19:29:23.364Z,2.30
2018-12-19T19:31:49.667Z,2.30
2018-12-19T19:34:16.070Z,2.30
2018-12-19T19:36:42.346Z,2.30
2018-12-19T19:39:08.627Z,2.30
2018-12-19T19:41:34.940Z,2.30
2018-12-19T19:44:01.267Z,2.30
2018-12-19T19:46:27.570Z,2.30
2018-12-19T19:48:53.847Z,2.30
2018-12-19T19:51:20.131Z,2.30
2018-12-19T19:53:46.453Z,2.20
2018-12-19T19:56:12.795Z,2.20
2018-12-19T19:58:39.039Z,2.20
2018-12-19T20:01:05.338Z,2.20
2018-12-19T20:03:31.664Z,2.20
2018-12-19T20:05:58.074Z,2.20
2018-12-19T20:08:24.357Z,2.20
2018-12-19T20:10:50.666Z,2.20
2018-12-19T20:13:16.941Z,2.20
2018-12-19T20:15:43.294Z,2.10
2018-12-19T20:18:09.641Z,2.10
2018-12-19T20:20:35.907Z,2.10
2018-12-19T20:23:02.254Z,2.10
2018-12-19T20:25:28.594Z,2.00
2018-12-19T20:27:54.944Z,2.00
2018-12-19T20:30:21.387Z,2.00
2018-12-19T20:32:47.672Z,2.00
2018-12-19T20:35:13.974Z,2.00
2018-12-19T20:37:40.321Z,2.00
2018-12-19T20:40:06.704Z,2.00
2018-12-19T20:42:33.000Z,2.00
2018-12-19T20:44:59.399Z,2.00
2018-12-19T20:47:25.688Z,2.00
2018-12-19T20:49:52.010Z,2.10
2018-12-19T20:52:18.271Z,2.10
2018-12-19T20:54:44.593Z,2.10
2018-12-19T20:57:11.056Z,2.10
2018-12-19T20:59:37.356Z,2.10
2018-12-19T21:02:04.034Z,2.10
2018-12-19T21:04:30.339Z,2.10
2018-12-19T21:06:56.691Z,2.00
2018-12-19T21:09:22.985Z,2.00
2018-12-19T21:11:49.319Z,2.00
2018-12-19T21:14:15.678Z,2.00
2018-12-19T21:16:48.027Z,2.00
2018-12-19T21:19:14.305Z,2.00
2018-12-19T21:21:40.578Z,2.00
2018-12-19T21:24:06.839Z,2.00
2018-12-19T21:26:33.105Z,2.00
2018-12-19T21:28:59.364Z,2.00
2018-12-19T21:31:25.636Z,2.00
2018-12-19T21:33:51.951Z,2.00
2018-12-19T21:36:18.244Z,2.00
2018-12-19T21:38:44.577Z,2.10
2018-12-19T21:41:10.934Z,2.00
2018-12-19T21:43:37.232Z,2.10
2018-12-19T21:46:03.529Z,2.10
2018-12-19T21:48:29.921Z,2.10
2018-12-19T21:50:56.180Z,2.10
2018-12-19T21:53:22.498Z,2.10
2018-12-19T21:55:48.852Z,2.10
2018-12-19T21:58:15.182Z,2.10
2018-12-19T22:00:41.550Z,2.20
2018-12-19T22:03:08.282Z,2.20
2018-12-19T22:05:34.596Z,2.20
2018-12-19T22:08:00.856Z,2.20
2018-12-19T22:10:27.148Z,2.20
2018-12-19T22:12:53.492Z,2.20
2018-12-19T22:15:19.865Z,2.20
2018-12-19T22:17:47.090Z,2.20
2018-12-19T22:20:13.471Z,2.10
2018-12-19T22:22:39.861Z,2.10
2018-12-19T22:25:06.167Z,2.10
2018-12-19T22:27:32.524Z,2.10
2018-12-19T22:29:58.915Z,2.20
2018-12-19T22:32:25.459Z,2.10
2018-12-19T22:34:51.707Z,2.10
2018-12-19T22:37:18.113Z,2.00
2018-12-19T22:39:44.370Z,2.10
2018-12-19T22:42:10.669Z,2.20
2018-12-19T22:44:37.023Z,2.20
2018-12-19T22:47:03.460Z,2.10
2018-12-19T22:49:29.819Z,2.10
2018-12-19T22:51:56.126Z,2.20
2018-12-19T22:54:22.582Z,2.10
2018-12-19T22:56:48.988Z,2.10
2018-12-19T22:59:15.324Z,2.10
2018-12-19T23:01:47.871Z,2.20
2018-12-19T23:04:14.268Z,2.10
2018-12-19T23:06:40.639Z,2.10
2018-12-19T23:09:07.134Z,2.10
2018-12-19T23:11:33.459Z,2.20
2018-12-19T23:13:59.909Z,2.20
2018-12-19T23:16:26.694Z,2.20
2018-12-19T23:18:53.035Z,2.20
2018-12-19T23:21:19.618Z,2.20
2018-12-19T23:23:45.907Z,2.20
2018-12-19T23:26:12.230Z,2.20
2018-12-19T23:28:38.520Z,2.20
2018-12-19T23:31:04.840Z,2.20
2018-12-19T23:33:31.127Z,2.30
2018-12-19T23:35:57.471Z,2.30
2018-12-19T23:38:23.888Z,2.30
2018-12-19T23:40:50.212Z,2.30
2018-12-19T23:43:16.488Z,2.30
2018-12-19T23:45:42.771Z,2.30
2018-12-19T23:48:09.272Z,2.30
2018-12-19T23:50:35.776Z,2.30
2018-12-19T23:53:02.355Z,2.30
2018-12-19T23:55:28.754Z,2.20
2018-12-19T23:57:55.160Z,2.20
